EmailTwitter


Observations de surface / Québec / CYUL (71627)

Régions: Québec | Canada | États-Unis | Europe | France | UK | Ailleurs
Station
Affichage
Infos & localisation pour CYUL (71627) | Aide pour décoder les METARs

Observations prises le 2018-11-18 à 05H00 UTC à MONTREAL INTL A, QB (CYUL)

Etat du ciel: quelques nuages.

Température: -6.0 Celsius

Point de rosée: -11.0 Celsius

Humidité relative: 68%

Facteur vent: -11.

Vents: Ouest à 11 km/h ou 6 noeuds.

Pression au niveau moyen de la mer: 102.60 kilopascals.

Calage altimétrique: 102.57 kilopascals ou 30.29 pouces de mercure.

Visibilité horizontale: 15.00 milles terrestres ou 24.00 kilomètres.

Observation METAR:

CYUL 180500Z 28006KT 15SM FEW020 M06/M11 A3029 RMK SC1 SC TR SLP260=